sensor_id;sensor_type;location;lat;lon;timestamp;P1;durP1;ratioP1;P2;durP2;ratioP2
9968;SDS011;5025;48.890;9.278;2024-01-10T00:00:29;13.30;;;9.47;;
9968;SDS011;5025;48.890;9.278;2024-01-10T00:02:55;11.63;;;8.50;;
9968;SDS011;5025;48.890;9.278;2024-01-10T00:05:20;13.80;;;8.83;;
9968;SDS011;5025;48.890;9.278;2024-01-10T00:07:45;11.00;;;8.33;;
9968;SDS011;5025;48.890;9.278;2024-01-10T00:10:11;10.53;;;7.83;;
9968;SDS011;5025;48.890;9.278;2024-01-10T00:12:36;10.80;;;7.80;;
9968;SDS011;5025;48.890;9.278;2024-01-10T00:15:05;10.80;;;7.27;;
9968;SDS011;5025;48.890;9.278;2024-01-10T00:17:30;10.50;;;7.43;;
9968;SDS011;5025;48.890;9.278;2024-01-10T00:19:56;10.30;;;7.43;;
9968;SDS011;5025;48.890;9.278;2024-01-10T00:22:21;10.40;;;7.30;;
9968;SDS011;5025;48.890;9.278;2024-01-10T00:24:46;9.80;;;7.00;;
9968;SDS011;5025;48.890;9.278;2024-01-10T00:27:12;11.50;;;7.70;;
9968;SDS011;5025;48.890;9.278;2024-01-10T00:29:37;13.23;;;7.73;;
9968;SDS011;5025;48.890;9.278;2024-01-10T00:32:03;13.03;;;7.90;;
9968;SDS011;5025;48.890;9.278;2024-01-10T00:34:29;10.73;;;7.30;;
9968;SDS011;5025;48.890;9.278;2024-01-10T00:36:54;11.07;;;7.40;;
9968;SDS011;5025;48.890;9.278;2024-01-10T00:39:19;10.40;;;7.30;;
9968;SDS011;5025;48.890;9.278;2024-01-10T00:41:45;13.87;;;8.43;;
9968;SDS011;5025;48.890;9.278;2024-01-10T00:44:10;10.67;;;7.80;;
9968;SDS011;5025;48.890;9.278;2024-01-10T00:46:35;13.07;;;7.70;;
9968;SDS011;5025;48.890;9.278;2024-01-10T00:49:01;10.13;;;7.30;;
9968;SDS011;5025;48.890;9.278;2024-01-10T00:51:26;11.97;;;8.20;;
9968;SDS011;5025;48.890;9.278;2024-01-10T00:53:51;10.53;;;7.53;;
9968;SDS011;5025;48.890;9.278;2024-01-10T00:56:16;12.33;;;7.83;;
9968;SDS011;5025;48.890;9.278;2024-01-10T00:58:41;11.07;;;7.70;;
9968;SDS011;5025;48.890;9.278;2024-01-10T01:01:07;9.83;;;7.30;;
9968;SDS011;5025;48.890;9.278;2024-01-10T01:03:32;9.47;;;7.17;;
9968;SDS011;5025;48.890;9.278;2024-01-10T01:05:57;11.07;;;7.93;;
9968;SDS011;5025;48.890;9.278;2024-01-10T01:08:23;9.23;;;6.90;;
9968;SDS011;5025;48.890;9.278;2024-01-10T01:10:48;9.83;;;7.30;;
9968;SDS011;5025;48.890;9.278;2024-01-10T01:13:13;9.70;;;6.57;;
9968;SDS011;5025;48.890;9.278;2024-01-10T01:15:38;11.67;;;7.63;;
9968;SDS011;5025;48.890;9.278;2024-01-10T01:18:04;13.47;;;9.30;;
9968;SDS011;5025;48.890;9.278;2024-01-10T01:20:29;13.53;;;8.47;;
9968;SDS011;5025;48.890;9.278;2024-01-10T01:22:54;10.63;;;7.80;;
9968;SDS011;5025;48.890;9.278;2024-01-10T01:25:20;11.30;;;8.17;;
9968;SDS011;5025;48.890;9.278;2024-01-10T01:27:45;14.00;;;8.00;;
9968;SDS011;5025;48.890;9.278;2024-01-10T01:30:10;10.23;;;7.30;;
9968;SDS011;5025;48.890;9.278;2024-01-10T01:32:36;11.60;;;8.13;;
9968;SDS011;5025;48.890;9.278;2024-01-10T01:35:02;9.67;;;6.77;;
9968;SDS011;5025;48.890;9.278;2024-01-10T01:37:27;9.33;;;6.27;;
9968;SDS011;5025;48.890;9.278;2024-01-10T01:39:53;10.07;;;6.83;;
9968;SDS011;5025;48.890;9.278;2024-01-10T01:42:18;8.43;;;5.93;;
9968;SDS011;5025;48.890;9.278;2024-01-10T01:44:43;9.27;;;6.63;;
9968;SDS011;5025;48.890;9.278;2024-01-10T01:47:09;11.07;;;6.73;;
9968;SDS011;5025;48.890;9.278;2024-01-10T01:49:34;7.43;;;6.10;;
9968;SDS011;5025;48.890;9.278;2024-01-10T01:52:00;9.23;;;6.70;;
9968;SDS011;5025;48.890;9.278;2024-01-10T01:54:26;8.00;;;5.60;;
9968;SDS011;5025;48.890;9.278;2024-01-10T01:56:51;7.87;;;5.90;;
9968;SDS011;5025;48.890;9.278;2024-01-10T01:59:17;8.37;;;5.87;;
9968;SDS011;5025;48.890;9.278;2024-01-10T02:01:43;7.63;;;5.80;;
9968;SDS011;5025;48.890;9.278;2024-01-10T02:04:09;8.77;;;6.33;;
9968;SDS011;5025;48.890;9.278;2024-01-10T02:06:34;7.37;;;5.40;;
9968;SDS011;5025;48.890;9.278;2024-01-10T02:09:00;9.50;;;5.87;;
9968;SDS011;5025;48.890;9.278;2024-01-10T02:11:25;8.33;;;5.60;;
9968;SDS011;5025;48.890;9.278;2024-01-10T02:13:51;9.27;;;6.50;;
9968;SDS011;5025;48.890;9.278;2024-01-10T02:16:19;7.90;;;5.30;;
9968;SDS011;5025;48.890;9.278;2024-01-10T02:18:45;7.67;;;6.37;;
9968;SDS011;5025;48.890;9.278;2024-01-10T02:21:10;10.83;;;6.37;;
9968;SDS011;5025;48.890;9.278;2024-01-10T02:23:35;7.57;;;5.77;;
9968;SDS011;5025;48.890;9.278;2024-01-10T02:26:01;8.83;;;6.23;;
9968;SDS011;5025;48.890;9.278;2024-01-10T02:28:26;7.27;;;5.80;;
9968;SDS011;5025;48.890;9.278;2024-01-10T02:30:51;8.50;;;6.30;;
9968;SDS011;5025;48.890;9.278;2024-01-10T02:33:19;9.30;;;6.80;;
9968;SDS011;5025;48.890;9.278;2024-01-10T02:35:44;9.43;;;6.87;;
9968;SDS011;5025;48.890;9.278;2024-01-10T02:38:09;7.40;;;5.97;;
9968;SDS011;5025;48.890;9.278;2024-01-10T02:40:35;8.27;;;6.00;;
9968;SDS011;5025;48.890;9.278;2024-01-10T02:43:00;9.27;;;6.13;;
9968;SDS011;5025;48.890;9.278;2024-01-10T02:45:25;9.03;;;6.30;;
9968;SDS011;5025;48.890;9.278;2024-01-10T02:47:50;7.90;;;5.93;;
9968;SDS011;5025;48.890;9.278;2024-01-10T02:50:16;9.33;;;6.70;;
9968;SDS011;5025;48.890;9.278;2024-01-10T02:52:41;8.70;;;6.10;;
9968;SDS011;5025;48.890;9.278;2024-01-10T02:55:07;7.17;;;5.40;;
9968;SDS011;5025;48.890;9.278;2024-01-10T02:57:32;6.47;;;5.20;;
9968;SDS011;5025;48.890;9.278;2024-01-10T02:59:57;8.50;;;6.07;;
9968;SDS011;5025;48.890;9.278;2024-01-10T03:02:22;10.50;;;6.73;;
9968;SDS011;5025;48.890;9.278;2024-01-10T03:04:48;7.50;;;5.73;;
9968;SDS011;5025;48.890;9.278;2024-01-10T03:07:13;9.80;;;7.17;;
9968;SDS011;5025;48.890;9.278;2024-01-10T03:09:39;7.00;;;5.30;;
9968;SDS011;5025;48.890;9.278;2024-01-10T03:12:04;8.03;;;5.77;;
9968;SDS011;5025;48.890;9.278;2024-01-10T03:14:29;10.07;;;6.13;;
9968;SDS011;5025;48.890;9.278;2024-01-10T03:16:55;8.60;;;6.20;;
9968;SDS011;5025;48.890;9.278;2024-01-10T03:19:20;9.53;;;6.80;;
9968;SDS011;5025;48.890;9.278;2024-01-10T03:21:45;6.97;;;5.90;;
9968;SDS011;5025;48.890;9.278;2024-01-10T03:24:10;10.20;;;7.07;;
9968;SDS011;5025;48.890;9.278;2024-01-10T03:26:36;8.57;;;6.27;;
9968;SDS011;5025;48.890;9.278;2024-01-10T03:29:01;9.67;;;6.00;;
9968;SDS011;5025;48.890;9.278;2024-01-10T03:31:27;9.80;;;6.27;;
9968;SDS011;5025;48.890;9.278;2024-01-10T03:33:54;8.13;;;6.13;;
9968;SDS011;5025;48.890;9.278;2024-01-10T03:36:19;10.70;;;7.60;;
9968;SDS011;5025;48.890;9.278;2024-01-10T03:38:44;8.50;;;5.93;;
9968;SDS011;5025;48.890;9.278;2024-01-10T03:41:17;10.30;;;6.67;;
9968;SDS011;5025;48.890;9.278;2024-01-10T03:43:42;9.37;;;6.20;;
9968;SDS011;5025;48.890;9.278;2024-01-10T03:46:12;7.77;;;6.20;;
9968;SDS011;5025;48.890;9.278;2024-01-10T03:48:38;8.40;;;5.73;;
9968;SDS011;5025;48.890;9.278;2024-01-10T03:51:12;6.60;;;5.40;;
9968;SDS011;5025;48.890;9.278;2024-01-10T03:53:37;7.90;;;5.57;;
9968;SDS011;5025;48.890;9.278;2024-01-10T03:56:05;9.43;;;6.20;;
9968;SDS011;5025;48.890;9.278;2024-01-10T03:58:31;7.80;;;5.70;;
9968;SDS011;5025;48.890;9.278;2024-01-10T04:00:56;8.67;;;5.97;;
9968;SDS011;5025;48.890;9.278;2024-01-10T04:03:21;7.67;;;6.10;;
9968;SDS011;5025;48.890;9.278;2024-01-10T04:05:47;8.43;;;6.40;;
9968;SDS011;5025;48.890;9.278;2024-01-10T04:08:12;8.10;;;6.43;;
9968;SDS011;5025;48.890;9.278;2024-01-10T04:10:37;8.00;;;6.73;;
9968;SDS011;5025;48.890;9.278;2024-01-10T04:13:03;9.13;;;6.47;;
9968;SDS011;5025;48.890;9.278;2024-01-10T04:15:28;9.23;;;6.57;;
9968;SDS011;5025;48.890;9.278;2024-01-10T04:17:53;9.10;;;6.30;;
9968;SDS011;5025;48.890;9.278;2024-01-10T04:20:18;9.83;;;6.60;;
9968;SDS011;5025;48.890;9.278;2024-01-10T04:22:44;7.80;;;6.40;;
9968;SDS011;5025;48.890;9.278;2024-01-10T04:25:10;9.57;;;6.40;;
9968;SDS011;5025;48.890;9.278;2024-01-10T04:27:36;9.43;;;6.90;;
9968;SDS011;5025;48.890;9.278;2024-01-10T04:30:01;8.40;;;6.10;;
9968;SDS011;5025;48.890;9.278;2024-01-10T04:32:26;10.67;;;7.07;;
9968;SDS011;5025;48.890;9.278;2024-01-10T04:34:52;9.07;;;6.70;;
9968;SDS011;5025;48.890;9.278;2024-01-10T04:37:17;15.73;;;11.60;;
9968;SDS011;5025;48.890;9.278;2024-01-10T04:39:43;14.90;;;11.60;;
9968;SDS011;5025;48.890;9.278;2024-01-10T04:42:08;15.73;;;11.20;;
9968;SDS011;5025;48.890;9.278;2024-01-10T04:44:36;12.20;;;9.90;;
9968;SDS011;5025;48.890;9.278;2024-01-10T04:47:01;13.67;;;9.63;;
9968;SDS011;5025;48.890;9.278;2024-01-10T04:49:27;11.87;;;8.47;;
9968;SDS011;5025;48.890;9.278;2024-01-10T04:51:52;12.00;;;8.27;;
9968;SDS011;5025;48.890;9.278;2024-01-10T04:54:18;11.50;;;7.63;;
9968;SDS011;5025;48.890;9.278;2024-01-10T04:56:43;8.60;;;6.70;;
9968;SDS011;5025;48.890;9.278;2024-01-10T04:59:08;11.60;;;7.47;;
9968;SDS011;5025;48.890;9.278;2024-01-10T05:01:34;9.17;;;6.37;;
9968;SDS011;5025;48.890;9.278;2024-01-10T05:03:59;9.40;;;5.90;;
9968;SDS011;5025;48.890;9.278;2024-01-10T05:06:24;8.20;;;6.47;;
9968;SDS011;5025;48.890;9.278;2024-01-10T05:08:50;8.97;;;6.53;;
9968;SDS011;5025;48.890;9.278;2024-01-10T05:11:15;7.20;;;5.30;;
9968;SDS011;5025;48.890;9.278;2024-01-10T05:13:41;10.57;;;7.30;;
9968;SDS011;5025;48.890;9.278;2024-01-10T05:16:07;9.17;;;7.00;;
9968;SDS011;5025;48.890;9.278;2024-01-10T05:18:32;9.40;;;6.60;;
9968;SDS011;5025;48.890;9.278;2024-01-10T05:20:58;8.33;;;6.20;;
9968;SDS011;5025;48.890;9.278;2024-01-10T05:23:25;11.83;;;7.63;;
9968;SDS011;5025;48.890;9.278;2024-01-10T05:25:50;9.60;;;6.67;;
9968;SDS011;5025;48.890;9.278;2024-01-10T05:28:15;9.00;;;7.20;;
9968;SDS011;5025;48.890;9.278;2024-01-10T05:30:41;10.80;;;7.17;;
9968;SDS011;5025;48.890;9.278;2024-01-10T05:33:08;7.97;;;5.90;;
9968;SDS011;5025;48.890;9.278;2024-01-10T05:35:33;9.73;;;6.60;;
9968;SDS011;5025;48.890;9.278;2024-01-10T05:38:00;9.87;;;7.07;;
9968;SDS011;5025;48.890;9.278;2024-01-10T05:40:27;11.07;;;7.57;;
9968;SDS011;5025;48.890;9.278;2024-01-10T05:42:54;11.03;;;7.57;;
9968;SDS011;5025;48.890;9.278;2024-01-10T05:45:20;10.37;;;7.00;;
9968;SDS011;5025;48.890;9.278;2024-01-10T05:47:45;10.23;;;7.63;;
9968;SDS011;5025;48.890;9.278;2024-01-10T05:50:11;9.27;;;7.13;;
9968;SDS011;5025;48.890;9.278;2024-01-10T05:52:36;9.97;;;6.87;;
9968;SDS011;5025;48.890;9.278;2024-01-10T05:55:01;9.30;;;6.80;;
9968;SDS011;5025;48.890;9.278;2024-01-10T05:57:27;9.03;;;6.97;;
9968;SDS011;5025;48.890;9.278;2024-01-10T05:59:53;9.87;;;6.70;;
9968;SDS011;5025;48.890;9.278;2024-01-10T06:02:21;7.73;;;6.33;;
9968;SDS011;5025;48.890;9.278;2024-01-10T06:04:47;9.63;;;6.87;;
9968;SDS011;5025;48.890;9.278;2024-01-10T06:07:12;8.73;;;6.40;;
9968;SDS011;5025;48.890;9.278;2024-01-10T06:09:38;8.87;;;6.67;;
9968;SDS011;5025;48.890;9.278;2024-01-10T06:12:04;9.70;;;6.93;;
9968;SDS011;5025;48.890;9.278;2024-01-10T06:14:30;8.20;;;6.33;;
9968;SDS011;5025;48.890;9.278;2024-01-10T06:16:56;9.77;;;6.90;;
9968;SDS011;5025;48.890;9.278;2024-01-10T06:19:24;10.97;;;7.80;;
9968;SDS011;5025;48.890;9.278;2024-01-10T06:21:49;10.23;;;6.53;;
9968;SDS011;5025;48.890;9.278;2024-01-10T06:24:15;8.67;;;6.57;;
9968;SDS011;5025;48.890;9.278;2024-01-10T06:26:40;10.27;;;6.37;;
9968;SDS011;5025;48.890;9.278;2024-01-10T06:29:05;10.10;;;6.33;;
9968;SDS011;5025;48.890;9.278;2024-01-10T06:31:31;7.83;;;5.43;;
9968;SDS011;5025;48.890;9.278;2024-01-10T06:33:56;9.80;;;6.60;;
9968;SDS011;5025;48.890;9.278;2024-01-10T06:36:21;7.87;;;6.00;;
9968;SDS011;5025;48.890;9.278;2024-01-10T06:38:47;8.20;;;5.90;;
9968;SDS011;5025;48.890;9.278;2024-01-10T06:41:12;13.37;;;7.07;;
9968;SDS011;5025;48.890;9.278;2024-01-10T06:43:38;9.93;;;6.57;;
9968;SDS011;5025;48.890;9.278;2024-01-10T06:46:04;10.67;;;7.17;;
9968;SDS011;5025;48.890;9.278;2024-01-10T06:48:30;8.20;;;5.60;;
9968;SDS011;5025;48.890;9.278;2024-01-10T06:50:56;8.43;;;6.33;;
9968;SDS011;5025;48.890;9.278;2024-01-10T06:53:22;11.43;;;7.97;;
9968;SDS011;5025;48.890;9.278;2024-01-10T06:55:47;8.43;;;6.50;;
9968;SDS011;5025;48.890;9.278;2024-01-10T06:58:12;9.13;;;6.80;;
9968;SDS011;5025;48.890;9.278;2024-01-10T07:00:37;9.53;;;6.87;;
9968;SDS011;5025;48.890;9.278;2024-01-10T07:03:03;10.00;;;7.73;;
9968;SDS011;5025;48.890;9.278;2024-01-10T07:05:29;10.70;;;7.73;;
9968;SDS011;5025;48.890;9.278;2024-01-10T07:07:56;9.43;;;7.13;;
9968;SDS011;5025;48.890;9.278;2024-01-10T07:10:21;10.57;;;7.03;;
9968;SDS011;5025;48.890;9.278;2024-01-10T07:12:50;10.07;;;7.27;;
9968;SDS011;5025;48.890;9.278;2024-01-10T07:15:16;9.63;;;6.97;;
9968;SDS011;5025;48.890;9.278;2024-01-10T07:17:42;8.73;;;7.37;;
9968;SDS011;5025;48.890;9.278;2024-01-10T07:20:08;10.10;;;6.80;;
9968;SDS011;5025;48.890;9.278;2024-01-10T07:22:36;10.93;;;7.33;;
9968;SDS011;5025;48.890;9.278;2024-01-10T07:25:04;10.13;;;7.53;;
9968;SDS011;5025;48.890;9.278;2024-01-10T07:27:31;10.03;;;7.07;;
9968;SDS011;5025;48.890;9.278;2024-01-10T07:29:56;10.27;;;7.50;;
9968;SDS011;5025;48.890;9.278;2024-01-10T07:32:22;8.67;;;6.17;;
9968;SDS011;5025;48.890;9.278;2024-01-10T07:34:48;9.47;;;6.67;;
9968;SDS011;5025;48.890;9.278;2024-01-10T07:37:13;8.77;;;6.10;;
9968;SDS011;5025;48.890;9.278;2024-01-10T07:39:41;10.03;;;6.80;;
9968;SDS011;5025;48.890;9.278;2024-01-10T07:42:06;8.57;;;6.00;;
9968;SDS011;5025;48.890;9.278;2024-01-10T07:44:32;7.47;;;5.63;;
9968;SDS011;5025;48.890;9.278;2024-01-10T07:46:58;9.77;;;6.33;;
9968;SDS011;5025;48.890;9.278;2024-01-10T07:49:23;8.73;;;6.30;;
9968;SDS011;5025;48.890;9.278;2024-01-10T07:51:49;9.17;;;6.57;;
9968;SDS011;5025;48.890;9.278;2024-01-10T07:54:14;9.37;;;7.17;;
9968;SDS011;5025;48.890;9.278;2024-01-10T07:56:39;7.47;;;5.77;;
9968;SDS011;5025;48.890;9.278;2024-01-10T07:59:05;8.33;;;6.10;;
9968;SDS011;5025;48.890;9.278;2024-01-10T08:01:30;7.73;;;6.47;;
9968;SDS011;5025;48.890;9.278;2024-01-10T08:03:55;8.80;;;5.70;;
9968;SDS011;5025;48.890;9.278;2024-01-10T08:06:20;8.00;;;5.57;;
9968;SDS011;5025;48.890;9.278;2024-01-10T08:08:46;8.47;;;5.97;;
9968;SDS011;5025;48.890;9.278;2024-01-10T08:11:11;9.07;;;6.37;;
9968;SDS011;5025;48.890;9.278;2024-01-10T08:13:36;9.17;;;6.20;;
9968;SDS011;5025;48.890;9.278;2024-01-10T08:16:01;8.23;;;6.37;;
9968;SDS011;5025;48.890;9.278;2024-01-10T08:18:28;11.23;;;7.83;;
9968;SDS011;5025;48.890;9.278;2024-01-10T08:20:54;9.37;;;7.20;;
9968;SDS011;5025;48.890;9.278;2024-01-10T08:23:20;10.43;;;7.20;;
9968;SDS011;5025;48.890;9.278;2024-01-10T08:25:45;9.43;;;6.97;;
9968;SDS011;5025;48.890;9.278;2024-01-10T08:28:10;10.20;;;7.27;;
9968;SDS011;5025;48.890;9.278;2024-01-10T08:30:38;9.77;;;7.80;;
9968;SDS011;5025;48.890;9.278;2024-01-10T08:33:03;8.73;;;6.87;;
9968;SDS011;5025;48.890;9.278;2024-01-10T08:35:29;10.03;;;7.10;;
9968;SDS011;5025;48.890;9.278;2024-01-10T08:37:54;10.03;;;7.10;;
9968;SDS011;5025;48.890;9.278;2024-01-10T08:40:20;14.43;;;10.00;;
9968;SDS011;5025;48.890;9.278;2024-01-10T08:42:48;11.80;;;8.90;;
9968;SDS011;5025;48.890;9.278;2024-01-10T08:45:13;11.37;;;8.50;;
9968;SDS011;5025;48.890;9.278;2024-01-10T08:47:40;12.30;;;9.20;;
9968;SDS011;5025;48.890;9.278;2024-01-10T08:50:05;9.83;;;7.03;;
9968;SDS011;5025;48.890;9.278;2024-01-10T08:52:33;11.37;;;8.53;;
9968;SDS011;5025;48.890;9.278;2024-01-10T08:54:59;13.33;;;9.60;;
9968;SDS011;5025;48.890;9.278;2024-01-10T08:57:24;12.27;;;9.33;;
9968;SDS011;5025;48.890;9.278;2024-01-10T08:59:52;13.50;;;9.00;;
9968;SDS011;5025;48.890;9.278;2024-01-10T09:02:17;14.37;;;9.87;;
9968;SDS011;5025;48.890;9.278;2024-01-10T09:04:42;12.40;;;8.70;;
9968;SDS011;5025;48.890;9.278;2024-01-10T09:07:07;12.07;;;9.50;;
9968;SDS011;5025;48.890;9.278;2024-01-10T09:09:34;11.93;;;8.83;;
9968;SDS011;5025;48.890;9.278;2024-01-10T09:11:59;10.20;;;8.20;;
9968;SDS011;5025;48.890;9.278;2024-01-10T09:14:25;12.30;;;8.77;;
9968;SDS011;5025;48.890;9.278;2024-01-10T09:16:50;12.43;;;8.67;;
9968;SDS011;5025;48.890;9.278;2024-01-10T09:19:17;15.07;;;9.97;;
9968;SDS011;5025;48.890;9.278;2024-01-10T09:21:42;15.10;;;10.83;;
9968;SDS011;5025;48.890;9.278;2024-01-10T09:24:07;15.00;;;10.60;;
9968;SDS011;5025;48.890;9.278;2024-01-10T09:26:36;12.13;;;8.97;;
9968;SDS011;5025;48.890;9.278;2024-01-10T09:29:01;11.30;;;8.40;;
9968;SDS011;5025;48.890;9.278;2024-01-10T09:31:26;14.17;;;10.37;;
9968;SDS011;5025;48.890;9.278;2024-01-10T09:33:51;18.43;;;13.03;;
9968;SDS011;5025;48.890;9.278;2024-01-10T09:36:17;15.13;;;12.00;;
9968;SDS011;5025;48.890;9.278;2024-01-10T09:38:42;16.73;;;12.23;;
9968;SDS011;5025;48.890;9.278;2024-01-10T09:41:07;16.47;;;11.67;;
9968;SDS011;5025;48.890;9.278;2024-01-10T09:43:34;14.80;;;11.37;;
9968;SDS011;5025;48.890;9.278;2024-01-10T09:46:00;17.20;;;12.43;;
9968;SDS011;5025;48.890;9.278;2024-01-10T09:48:26;17.27;;;12.27;;
9968;SDS011;5025;48.890;9.278;2024-01-10T09:50:52;13.03;;;10.33;;
9968;SDS011;5025;48.890;9.278;2024-01-10T09:53:21;13.30;;;10.13;;
9968;SDS011;5025;48.890;9.278;2024-01-10T09:55:51;13.37;;;10.30;;
9968;SDS011;5025;48.890;9.278;2024-01-10T09:58:17;14.83;;;11.23;;
9968;SDS011;5025;48.890;9.278;2024-01-10T10:00:43;15.93;;;10.90;;
9968;SDS011;5025;48.890;9.278;2024-01-10T10:03:08;18.63;;;13.70;;
9968;SDS011;5025;48.890;9.278;2024-01-10T10:05:37;18.90;;;13.40;;
9968;SDS011;5025;48.890;9.278;2024-01-10T10:08:03;16.60;;;12.70;;
9968;SDS011;5025;48.890;9.278;2024-01-10T10:10:31;20.97;;;15.17;;
9968;SDS011;5025;48.890;9.278;2024-01-10T10:12:57;20.30;;;14.70;;
9968;SDS011;5025;48.890;9.278;2024-01-10T10:15:23;16.90;;;13.23;;
9968;SDS011;5025;48.890;9.278;2024-01-10T10:17:52;18.23;;;13.70;;
9968;SDS011;5025;48.890;9.278;2024-01-10T10:20:22;18.40;;;13.47;;
9968;SDS011;5025;48.890;9.278;2024-01-10T10:23:01;20.13;;;13.23;;
9968;SDS011;5025;48.890;9.278;2024-01-10T10:25:33;18.60;;;13.17;;
9968;SDS011;5025;48.890;9.278;2024-01-10T10:28:00;16.90;;;12.67;;
9968;SDS011;5025;48.890;9.278;2024-01-10T10:30:27;18.20;;;13.10;;
9968;SDS011;5025;48.890;9.278;2024-01-10T10:32:52;18.73;;;14.03;;
9968;SDS011;5025;48.890;9.278;2024-01-10T10:35:18;18.23;;;13.00;;
9968;SDS011;5025;48.890;9.278;2024-01-10T10:37:45;18.00;;;12.97;;
9968;SDS011;5025;48.890;9.278;2024-01-10T10:40:10;15.50;;;12.53;;
9968;SDS011;5025;48.890;9.278;2024-01-10T10:42:36;19.63;;;13.47;;
9968;SDS011;5025;48.890;9.278;2024-01-10T10:45:08;15.67;;;12.03;;
9968;SDS011;5025;48.890;9.278;2024-01-10T10:47:37;15.40;;;12.10;;
9968;SDS011;5025;48.890;9.278;2024-01-10T10:50:08;17.03;;;12.70;;
9968;SDS011;5025;48.890;9.278;2024-01-10T10:52:41;18.70;;;13.23;;
9968;SDS011;5025;48.890;9.278;2024-01-10T10:55:11;16.20;;;11.90;;
9968;SDS011;5025;48.890;9.278;2024-01-10T10:57:39;18.70;;;13.73;;
9968;SDS011;5025;48.890;9.278;2024-01-10T11:00:06;17.77;;;13.93;;
9968;SDS011;5025;48.890;9.278;2024-01-10T11:02:32;18.00;;;13.73;;
9968;SDS011;5025;48.890;9.278;2024-01-10T11:04:57;20.10;;;13.70;;
9968;SDS011;5025;48.890;9.278;2024-01-10T11:07:24;20.07;;;14.60;;
9968;SDS011;5025;48.890;9.278;2024-01-10T11:09:49;19.73;;;14.03;;
9968;SDS011;5025;48.890;9.278;2024-01-10T11:12:24;18.73;;;13.47;;
9968;SDS011;5025;48.890;9.278;2024-01-10T11:15:21;17.70;;;12.83;;
9968;SDS011;5025;48.890;9.278;2024-01-10T11:18:07;15.23;;;11.57;;
9968;SDS011;5025;48.890;9.278;2024-01-10T11:23:28;16.87;;;12.53;;
9968;SDS011;5025;48.890;9.278;2024-01-10T11:26:03;18.80;;;14.73;;
9968;SDS011;5025;48.890;9.278;2024-01-10T11:28:31;19.73;;;15.07;;
9968;SDS011;5025;48.890;9.278;2024-01-10T11:30:56;20.70;;;15.80;;
9968;SDS011;5025;48.890;9.278;2024-01-10T11:33:24;20.70;;;14.97;;
9968;SDS011;5025;48.890;9.278;2024-01-10T11:38:41;22.90;;;15.87;;
9968;SDS011;5025;48.890;9.278;2024-01-10T11:41:30;27.30;;;19.90;;
9968;SDS011;5025;48.890;9.278;2024-01-10T11:44:25;25.97;;;18.50;;
9968;SDS011;5025;48.890;9.278;2024-01-10T11:46:53;21.27;;;15.27;;
9968;SDS011;5025;48.890;9.278;2024-01-10T11:49:20;20.47;;;15.73;;
9968;SDS011;5025;48.890;9.278;2024-01-10T11:51:54;20.17;;;14.97;;
9968;SDS011;5025;48.890;9.278;2024-01-10T11:54:34;20.90;;;14.37;;
9968;SDS011;5025;48.890;9.278;2024-01-10T11:57:16;16.20;;;12.93;;
9968;SDS011;5025;48.890;9.278;2024-01-10T11:59:48;16.43;;;13.07;;
9968;SDS011;5025;48.890;9.278;2024-01-10T12:02:16;18.03;;;13.43;;
9968;SDS011;5025;48.890;9.278;2024-01-10T12:04:42;17.80;;;13.70;;
9968;SDS011;5025;48.890;9.278;2024-01-10T12:07:08;14.90;;;12.07;;
9968;SDS011;5025;48.890;9.278;2024-01-10T12:09:34;16.83;;;13.73;;
9968;SDS011;5025;48.890;9.278;2024-01-10T12:12:00;19.63;;;15.23;;
9968;SDS011;5025;48.890;9.278;2024-01-10T12:14:26;20.47;;;15.30;;
9968;SDS011;5025;48.890;9.278;2024-01-10T12:16:52;18.30;;;13.87;;
9968;SDS011;5025;48.890;9.278;2024-01-10T12:19:18;17.50;;;12.80;;
9968;SDS011;5025;48.890;9.278;2024-01-10T12:21:43;18.07;;;13.17;;
9968;SDS011;5025;48.890;9.278;2024-01-10T12:24:08;17.30;;;13.10;;
9968;SDS011;5025;48.890;9.278;2024-01-10T12:26:34;15.90;;;12.60;;
9968;SDS011;5025;48.890;9.278;2024-01-10T12:29:00;17.83;;;14.27;;
9968;SDS011;5025;48.890;9.278;2024-01-10T12:31:27;19.07;;;14.60;;
9968;SDS011;5025;48.890;9.278;2024-01-10T12:33:57;18.33;;;14.60;;
9968;SDS011;5025;48.890;9.278;2024-01-10T12:36:22;17.97;;;14.53;;
9968;SDS011;5025;48.890;9.278;2024-01-10T12:38:48;17.50;;;13.20;;
9968;SDS011;5025;48.890;9.278;2024-01-10T12:41:17;16.03;;;12.53;;
9968;SDS011;5025;48.890;9.278;2024-01-10T12:43:43;17.30;;;13.53;;
9968;SDS011;5025;48.890;9.278;2024-01-10T12:46:13;17.30;;;13.90;;
9968;SDS011;5025;48.890;9.278;2024-01-10T12:48:39;17.43;;;14.27;;
9968;SDS011;5025;48.890;9.278;2024-01-10T12:51:06;18.50;;;14.70;;
9968;SDS011;5025;48.890;9.278;2024-01-10T12:53:36;21.67;;;14.93;;
9968;SDS011;5025;48.890;9.278;2024-01-10T12:56:03;17.43;;;13.73;;
9968;SDS011;5025;48.890;9.278;2024-01-10T12:58:29;17.17;;;13.83;;
9968;SDS011;5025;48.890;9.278;2024-01-10T13:00:55;19.43;;;15.43;;
9968;SDS011;5025;48.890;9.278;2024-01-10T13:03:21;17.83;;;14.13;;
9968;SDS011;5025;48.890;9.278;2024-01-10T13:05:47;19.67;;;15.10;;
9968;SDS011;5025;48.890;9.278;2024-01-10T13:08:12;19.77;;;14.60;;
9968;SDS011;5025;48.890;9.278;2024-01-10T13:10:38;17.33;;;13.57;;
9968;SDS011;5025;48.890;9.278;2024-01-10T13:13:03;17.77;;;14.00;;
9968;SDS011;5025;48.890;9.278;2024-01-10T13:15:29;19.37;;;15.10;;
9968;SDS011;5025;48.890;9.278;2024-01-10T13:17:55;16.20;;;13.20;;
9968;SDS011;5025;48.890;9.278;2024-01-10T13:20:21;14.40;;;12.37;;
9968;SDS011;5025;48.890;9.278;2024-01-10T13:22:46;17.90;;;14.23;;
9968;SDS011;5025;48.890;9.278;2024-01-10T13:25:11;16.83;;;14.67;;
9968;SDS011;5025;48.890;9.278;2024-01-10T13:27:37;16.57;;;13.23;;
9968;SDS011;5025;48.890;9.278;2024-01-10T13:30:03;16.97;;;14.17;;
9968;SDS011;5025;48.890;9.278;2024-01-10T13:32:30;15.87;;;13.27;;
9968;SDS011;5025;48.890;9.278;2024-01-10T13:34:56;17.50;;;14.80;;
9968;SDS011;5025;48.890;9.278;2024-01-10T13:37:21;18.00;;;13.90;;
9968;SDS011;5025;48.890;9.278;2024-01-10T13:39:47;19.63;;;15.50;;
9968;SDS011;5025;48.890;9.278;2024-01-10T13:42:12;17.90;;;14.13;;
9968;SDS011;5025;48.890;9.278;2024-01-10T13:44:37;19.13;;;14.70;;
9968;SDS011;5025;48.890;9.278;2024-01-10T13:47:03;17.13;;;14.03;;
9968;SDS011;5025;48.890;9.278;2024-01-10T13:49:29;15.83;;;13.57;;
9968;SDS011;5025;48.890;9.278;2024-01-10T13:51:54;17.33;;;14.63;;
9968;SDS011;5025;48.890;9.278;2024-01-10T13:54:19;16.70;;;14.73;;
9968;SDS011;5025;48.890;9.278;2024-01-10T13:56:45;19.73;;;15.83;;
9968;SDS011;5025;48.890;9.278;2024-01-10T13:59:11;18.43;;;14.90;;
9968;SDS011;5025;48.890;9.278;2024-01-10T14:01:36;17.67;;;15.77;;
9968;SDS011;5025;48.890;9.278;2024-01-10T14:04:01;18.43;;;14.40;;
9968;SDS011;5025;48.890;9.278;2024-01-10T14:06:27;17.87;;;15.10;;
9968;SDS011;5025;48.890;9.278;2024-01-10T14:08:52;19.07;;;14.23;;
9968;SDS011;5025;48.890;9.278;2024-01-10T14:11:18;17.83;;;14.57;;
9968;SDS011;5025;48.890;9.278;2024-01-10T14:13:44;19.17;;;15.00;;
9968;SDS011;5025;48.890;9.278;2024-01-10T14:16:10;17.17;;;14.17;;
9968;SDS011;5025;48.890;9.278;2024-01-10T14:18:36;18.30;;;15.13;;
9968;SDS011;5025;48.890;9.278;2024-01-10T14:21:01;18.30;;;16.13;;
9968;SDS011;5025;48.890;9.278;2024-01-10T14:23:26;18.30;;;15.60;;
9968;SDS011;5025;48.890;9.278;2024-01-10T14:25:51;18.30;;;15.23;;
9968;SDS011;5025;48.890;9.278;2024-01-10T14:28:18;18.80;;;16.00;;
9968;SDS011;5025;48.890;9.278;2024-01-10T14:30:45;17.83;;;15.13;;
9968;SDS011;5025;48.890;9.278;2024-01-10T14:33:11;18.87;;;15.00;;
9968;SDS011;5025;48.890;9.278;2024-01-10T14:35:38;19.73;;;16.27;;
9968;SDS011;5025;48.890;9.278;2024-01-10T14:38:04;22.57;;;17.17;;
9968;SDS011;5025;48.890;9.278;2024-01-10T14:40:30;18.93;;;15.47;;
9968;SDS011;5025;48.890;9.278;2024-01-10T14:42:55;20.43;;;16.40;;
9968;SDS011;5025;48.890;9.278;2024-01-10T14:45:20;18.97;;;14.97;;
9968;SDS011;5025;48.890;9.278;2024-01-10T14:47:46;21.60;;;17.27;;
9968;SDS011;5025;48.890;9.278;2024-01-10T14:50:11;16.57;;;14.07;;
9968;SDS011;5025;48.890;9.278;2024-01-10T14:52:36;19.53;;;15.90;;
9968;SDS011;5025;48.890;9.278;2024-01-10T14:55:02;19.87;;;15.90;;
9968;SDS011;5025;48.890;9.278;2024-01-10T14:57:29;17.57;;;14.13;;
9968;SDS011;5025;48.890;9.278;2024-01-10T14:59:55;17.10;;;14.67;;